createdAt,value
2023-03-29T00:00:13.956Z,6.88
2023-03-29T00:02:40.575Z,6.88
2023-03-29T00:05:07.274Z,6.87
2023-03-29T00:07:33.633Z,6.88
2023-03-29T00:09:59.996Z,6.87
2023-03-29T00:12:26.378Z,6.88
2023-03-29T00:14:52.734Z,6.88
2023-03-29T00:17:19.094Z,6.87
2023-03-29T00:19:45.474Z,6.88
2023-03-29T00:22:12.084Z,6.88
2023-03-29T00:24:38.452Z,6.87
2023-03-29T00:27:04.831Z,6.85
2023-03-29T00:29:31.176Z,6.87
2023-03-29T00:31:57.606Z,6.85
2023-03-29T00:34:24.053Z,6.88
2023-03-29T00:36:50.440Z,6.88
2023-03-29T00:39:16.831Z,6.88
2023-03-29T00:41:43.200Z,6.85
2023-03-29T00:44:09.568Z,6.85
2023-03-29T00:46:35.962Z,6.87
2023-03-29T00:49:02.562Z,6.87
2023-03-29T00:51:28.930Z,6.84
2023-03-29T00:53:55.281Z,6.87
2023-03-29T00:56:21.665Z,6.88
2023-03-29T00:58:48.018Z,6.85
2023-03-29T01:01:14.406Z,6.87
2023-03-29T01:03:40.893Z,6.85
2023-03-29T01:06:07.347Z,6.85
2023-03-29T01:08:33.684Z,6.84
2023-03-29T01:11:00.208Z,6.85
2023-03-29T01:13:26.672Z,6.84
2023-03-29T01:15:53.215Z,6.85
2023-03-29T01:18:19.561Z,6.85
2023-03-29T01:20:45.912Z,6.85
2023-03-29T01:23:12.243Z,6.83
2023-03-29T01:25:38.823Z,6.84
2023-03-29T01:28:05.324Z,6.83
2023-03-29T01:30:31.657Z,6.83
2023-03-29T01:32:58.041Z,6.84
2023-03-29T01:35:24.416Z,6.85
2023-03-29T01:37:50.750Z,6.84
2023-03-29T01:40:17.089Z,6.85
2023-03-29T01:42:43.453Z,6.87
2023-03-29T01:45:09.786Z,6.87
2023-03-29T01:47:36.209Z,6.87
2023-03-29T01:50:02.830Z,6.85
2023-03-29T01:52:31.619Z,6.84
2023-03-29T01:54:57.966Z,6.85
2023-03-29T01:57:24.358Z,6.84
2023-03-29T01:59:50.938Z,6.87
2023-03-29T02:02:17.609Z,6.84
2023-03-29T02:04:44.344Z,6.84
2023-03-29T02:07:10.694Z,6.84
2023-03-29T02:09:37.036Z,6.87
2023-03-29T02:12:03.395Z,6.84
2023-03-29T02:14:29.747Z,6.85
2023-03-29T02:16:56.069Z,6.80
2023-03-29T02:19:22.612Z,6.83
2023-03-29T02:21:48.982Z,6.81
2023-03-29T02:24:15.566Z,6.81
2023-03-29T02:26:41.917Z,6.83
2023-03-29T02:29:08.265Z,6.84
2023-03-29T02:31:34.687Z,6.83
2023-03-29T02:34:01.099Z,6.83
2023-03-29T02:36:27.445Z,6.81
2023-03-29T02:38:53.800Z,6.81
2023-03-29T02:41:20.135Z,6.81
2023-03-29T02:43:46.467Z,6.81
2023-03-29T02:46:13.048Z,6.81
2023-03-29T02:48:39.396Z,6.81
2023-03-29T02:51:05.963Z,6.81
2023-03-29T02:53:32.306Z,6.81
2023-03-29T02:55:59.261Z,6.81
2023-03-29T02:58:25.608Z,6.84
2023-03-29T03:00:51.969Z,6.81
2023-03-29T03:03:18.658Z,6.84
2023-03-29T03:05:45.268Z,6.83
2023-03-29T03:08:11.817Z,6.80
2023-03-29T03:10:38.163Z,6.83
2023-03-29T03:13:04.538Z,6.81
2023-03-29T03:15:30.872Z,6.81
2023-03-29T03:17:57.324Z,6.83
2023-03-29T03:20:23.705Z,6.81
2023-03-29T03:22:50.280Z,6.83
2023-03-29T03:25:16.640Z,6.83
2023-03-29T03:27:43.253Z,6.81
2023-03-29T03:30:09.597Z,6.80
2023-03-29T03:32:35.989Z,6.81
2023-03-29T03:35:02.405Z,6.81
2023-03-29T03:37:28.762Z,6.81
2023-03-29T03:39:55.115Z,6.80
2023-03-29T03:42:21.472Z,6.84
2023-03-29T03:44:47.824Z,6.81
2023-03-29T03:47:14.180Z,6.80
2023-03-29T03:49:40.522Z,6.80
2023-03-29T03:52:06.839Z,6.79
2023-03-29T03:54:33.180Z,6.79
2023-03-29T03:56:59.647Z,6.81
2023-03-29T03:59:26.010Z,6.83
2023-03-29T04:01:52.349Z,6.84
2023-03-29T04:04:18.685Z,6.83
2023-03-29T04:06:45.037Z,6.83
2023-03-29T04:09:11.628Z,6.83
2023-03-29T04:11:38.018Z,6.80
2023-03-29T04:14:04.387Z,6.81
2023-03-29T04:16:30.886Z,6.80
2023-03-29T04:18:57.670Z,6.81
2023-03-29T04:21:24.067Z,6.83
2023-03-29T04:23:50.619Z,6.81
2023-03-29T04:26:16.980Z,6.80
2023-03-29T04:28:46.640Z,6.81
2023-03-29T04:31:13.133Z,6.81
2023-03-29T04:33:39.495Z,6.83
2023-03-29T04:36:05.881Z,6.80
2023-03-29T04:38:32.502Z,6.81
2023-03-29T04:40:59.118Z,6.79
2023-03-29T04:43:26.241Z,6.81
2023-03-29T04:45:52.584Z,6.80
2023-03-29T04:48:18.923Z,6.81
2023-03-29T04:50:45.466Z,6.79
2023-03-29T04:53:12.015Z,6.80
2023-03-29T04:55:38.362Z,6.80
2023-03-29T04:58:04.691Z,6.80
2023-03-29T05:00:31.016Z,6.77
2023-03-29T05:02:57.408Z,6.80
2023-03-29T05:05:23.745Z,6.79
2023-03-29T05:07:50.112Z,6.81
2023-03-29T05:10:16.783Z,6.80
2023-03-29T05:12:43.166Z,6.80
2023-03-29T05:15:09.496Z,6.81
2023-03-29T05:17:35.885Z,6.79
2023-03-29T05:20:02.253Z,6.80
2023-03-29T05:22:28.593Z,6.80
2023-03-29T05:24:54.931Z,6.79
2023-03-29T05:27:21.287Z,6.81
2023-03-29T05:29:47.644Z,6.77
2023-03-29T05:32:14.055Z,6.79
2023-03-29T05:34:40.648Z,6.81
2023-03-29T05:37:06.970Z,6.80
2023-03-29T05:39:34.538Z,6.79
2023-03-29T05:42:02.100Z,6.79
2023-03-29T05:44:28.443Z,6.79
2023-03-29T05:46:55.058Z,6.79
2023-03-29T05:49:21.420Z,6.79
2023-03-29T05:51:47.772Z,6.81
2023-03-29T05:54:14.094Z,6.77
2023-03-29T05:56:40.467Z,6.79
2023-03-29T05:59:06.865Z,6.79
2023-03-29T06:01:33.212Z,6.81
2023-03-29T06:03:59.621Z,6.79
2023-03-29T06:06:26.001Z,6.81
2023-03-29T06:08:52.352Z,6.80
2023-03-29T06:11:18.920Z,6.76
2023-03-29T06:13:45.257Z,6.80
2023-03-29T06:16:11.601Z,6.79
2023-03-29T06:18:38.251Z,6.81
2023-03-29T06:21:04.809Z,6.80
2023-03-29T06:23:31.428Z,6.81
2023-03-29T06:25:57.898Z,6.80
2023-03-29T06:28:24.250Z,6.77
2023-03-29T06:30:50.665Z,6.77
2023-03-29T06:33:17.417Z,6.77
2023-03-29T06:35:43.798Z,6.79
2023-03-29T06:38:10.176Z,6.77
2023-03-29T06:40:36.779Z,6.76
2023-03-29T06:43:03.117Z,6.77
2023-03-29T06:45:29.656Z,6.76
2023-03-29T06:47:56.335Z,6.76
2023-03-29T06:50:22.730Z,6.77
2023-03-29T06:52:49.079Z,6.77
2023-03-29T06:55:15.405Z,6.74
2023-03-29T06:57:41.997Z,6.77
2023-03-29T07:00:08.352Z,6.77
2023-03-29T07:02:34.762Z,6.74
2023-03-29T07:05:01.183Z,6.76
2023-03-29T07:07:27.548Z,6.76
2023-03-29T07:09:54.051Z,6.72
2023-03-29T07:12:20.597Z,6.73
2023-03-29T07:14:46.959Z,6.72
2023-03-29T07:17:13.287Z,6.74
2023-03-29T07:19:39.624Z,6.73
2023-03-29T07:22:05.981Z,6.76
2023-03-29T07:24:32.594Z,6.76
2023-03-29T07:27:04.047Z,6.77
2023-03-29T07:29:31.001Z,6.74
2023-03-29T07:31:57.359Z,6.73
2023-03-29T07:34:23.975Z,6.74
2023-03-29T07:36:50.339Z,6.74
2023-03-29T07:39:17.185Z,6.74
2023-03-29T07:41:43.518Z,6.73
2023-03-29T07:44:09.894Z,6.73
2023-03-29T07:46:36.261Z,6.74
2023-03-29T07:49:02.610Z,6.74
2023-03-29T07:51:28.960Z,6.73
2023-03-29T07:53:55.419Z,6.73
2023-03-29T07:56:21.793Z,6.77
2023-03-29T07:58:48.153Z,6.74
2023-03-29T08:01:16.460Z,6.74
2023-03-29T08:03:44.440Z,6.74
2023-03-29T08:06:10.786Z,6.74
2023-03-29T08:08:37.130Z,6.76
2023-03-29T08:11:03.766Z,6.76
2023-03-29T08:13:30.726Z,6.74
2023-03-29T08:15:57.334Z,6.76
2023-03-29T08:18:23.678Z,6.79
2023-03-29T08:20:50.734Z,6.77
2023-03-29T08:23:17.064Z,6.76
2023-03-29T08:25:43.387Z,6.77
2023-03-29T08:28:09.744Z,6.77
2023-03-29T08:30:36.593Z,6.76
2023-03-29T08:33:03.647Z,6.76
2023-03-29T08:35:30.034Z,6.77
2023-03-29T08:37:56.852Z,6.80
2023-03-29T08:40:23.201Z,6.79
2023-03-29T08:42:49.555Z,6.79
2023-03-29T08:45:15.908Z,6.77
2023-03-29T08:47:42.244Z,6.80
2023-03-29T08:50:08.610Z,6.77
2023-03-29T08:52:36.227Z,6.79
2023-03-29T08:55:02.593Z,6.79
2023-03-29T08:57:28.968Z,6.79
2023-03-29T08:59:55.387Z,6.77
2023-03-29T09:02:21.799Z,6.77
2023-03-29T09:04:48.206Z,6.79
2023-03-29T09:07:15.046Z,6.79
2023-03-29T09:09:41.390Z,6.76
2023-03-29T09:12:08.229Z,6.80
2023-03-29T09:14:34.579Z,6.79
2023-03-29T09:17:01.094Z,6.79
2023-03-29T09:19:27.605Z,6.79
2023-03-29T09:21:53.939Z,6.77
2023-03-29T09:24:20.471Z,6.81
2023-03-29T09:26:46.843Z,6.81
2023-03-29T09:29:13.163Z,6.81
2023-03-29T09:31:39.550Z,6.81
2023-03-29T09:34:05.941Z,6.79
2023-03-29T09:36:32.296Z,6.79
2023-03-29T09:38:58.664Z,6.83
2023-03-29T09:41:25.199Z,6.81
2023-03-29T09:43:51.532Z,6.81
2023-03-29T09:46:18.079Z,6.81
2023-03-29T09:48:44.481Z,6.80
2023-03-29T09:51:11.063Z,6.84
2023-03-29T09:53:37.399Z,6.84
2023-03-29T09:56:03.919Z,6.83
2023-03-29T09:58:30.250Z,6.81
2023-03-29T10:00:56.852Z,6.85
2023-03-29T10:03:23.348Z,6.81
2023-03-29T10:05:49.877Z,6.83
2023-03-29T10:08:18.227Z,6.81
2023-03-29T10:10:45.934Z,6.81
2023-03-29T10:13:12.314Z,6.83
2023-03-29T10:15:38.848Z,6.83
2023-03-29T10:18:05.233Z,6.83
2023-03-29T10:20:31.783Z,6.83
2023-03-29T10:22:58.112Z,6.83
2023-03-29T10:25:24.431Z,6.84
2023-03-29T10:27:50.784Z,6.81
2023-03-29T10:30:17.146Z,6.84
2023-03-29T10:32:43.504Z,6.83
2023-03-29T10:35:09.896Z,6.81
2023-03-29T10:37:36.246Z,6.85
2023-03-29T10:40:02.557Z,6.84
2023-03-29T10:42:28.931Z,6.83
2023-03-29T10:44:55.448Z,6.84
2023-03-29T10:47:21.974Z,6.85
2023-03-29T10:49:48.326Z,6.84
2023-03-29T10:52:14.869Z,6.84
2023-03-29T10:54:41.221Z,6.87
2023-03-29T10:57:07.847Z,6.84
2023-03-29T10:59:34.213Z,6.85
2023-03-29T11:02:00.850Z,6.85
2023-03-29T11:04:27.211Z,6.84
2023-03-29T11:06:53.716Z,6.87
2023-03-29T11:09:20.063Z,6.85
2023-03-29T11:11:46.414Z,6.84
2023-03-29T11:14:12.736Z,6.87
2023-03-29T11:16:39.090Z,6.85
2023-03-29T11:19:05.443Z,6.85
2023-03-29T11:21:31.957Z,6.87
2023-03-29T11:23:58.317Z,6.87
2023-03-29T11:26:24.663Z,6.87
2023-03-29T11:28:51.014Z,6.87
2023-03-29T11:31:17.387Z,6.85
2023-03-29T11:33:43.722Z,6.88
2023-03-29T11:36:10.109Z,6.85
2023-03-29T11:38:36.637Z,6.84
2023-03-29T11:41:03.202Z,6.87
2023-03-29T11:43:30.011Z,6.87
2023-03-29T11:45:56.372Z,6.90
2023-03-29T11:48:25.302Z,6.87
2023-03-29T11:50:51.667Z,6.87
2023-03-29T11:53:18.197Z,6.87
2023-03-29T11:55:44.555Z,6.91
2023-03-29T11:58:10.882Z,6.90
2023-03-29T12:00:37.234Z,6.87
2023-03-29T12:03:03.659Z,6.90
2023-03-29T12:05:30.053Z,6.87
2023-03-29T12:07:56.419Z,6.90
2023-03-29T12:10:22.775Z,6.91
2023-03-29T12:12:49.128Z,6.88
2023-03-29T12:15:15.472Z,6.88
2023-03-29T12:17:41.887Z,6.91
2023-03-29T12:20:08.462Z,6.88
2023-03-29T12:22:34.832Z,6.91
2023-03-29T12:25:01.359Z,6.93
2023-03-29T12:27:27.703Z,6.90
2023-03-29T12:29:54.227Z,6.90
2023-03-29T12:32:20.589Z,6.91
2023-03-29T12:34:46.972Z,6.91
2023-03-29T12:37:13.450Z,6.93
2023-03-29T12:39:39.965Z,6.91
2023-03-29T12:42:06.302Z,6.91
2023-03-29T12:44:32.830Z,6.90
2023-03-29T12:46:59.195Z,6.91
2023-03-29T12:49:27.039Z,6.94
2023-03-29T12:51:53.407Z,6.91
2023-03-29T12:54:19.750Z,6.93
2023-03-29T12:56:46.106Z,6.93
2023-03-29T12:59:12.513Z,6.95
2023-03-29T13:01:38.956Z,6.94
2023-03-29T13:04:05.404Z,6.95
2023-03-29T13:06:31.924Z,6.95
2023-03-29T13:08:58.550Z,6.93
2023-03-29T13:11:24.931Z,6.94
2023-03-29T13:13:51.301Z,6.98
2023-03-29T13:16:17.728Z,7.00
2023-03-29T13:18:44.115Z,7.00
2023-03-29T13:21:10.664Z,6.98
2023-03-29T13:23:37.000Z,6.98
2023-03-29T13:26:03.709Z,6.98
2023-03-29T13:28:30.169Z,6.98
2023-03-29T13:30:56.543Z,6.98
2023-03-29T13:33:22.938Z,7.00
2023-03-29T13:35:49.356Z,7.00
2023-03-29T13:38:15.902Z,7.00
2023-03-29T13:40:42.213Z,7.00
2023-03-29T13:43:08.768Z,7.02
2023-03-29T13:45:35.120Z,7.04
2023-03-29T13:50:28.887Z,7.02
2023-03-29T13:52:55.525Z,7.02
2023-03-29T13:55:21.874Z,7.04
2023-03-29T13:57:48.268Z,7.04
2023-03-29T14:00:14.679Z,7.04
2023-03-29T14:02:41.106Z,7.02
2023-03-29T14:05:07.478Z,7.07
2023-03-29T14:07:33.813Z,7.02
2023-03-29T14:10:00.148Z,7.05
2023-03-29T14:12:26.474Z,7.05
2023-03-29T14:14:58.916Z,7.05
2023-03-29T14:17:25.860Z,7.05
2023-03-29T14:19:52.212Z,7.04
2023-03-29T14:22:18.532Z,7.05
2023-03-29T14:24:45.042Z,7.05
2023-03-29T14:27:11.379Z,7.05
2023-03-29T14:29:37.902Z,7.07
2023-03-29T14:32:04.302Z,7.07
2023-03-29T14:34:30.845Z,7.08
2023-03-29T14:36:57.244Z,7.08
2023-03-29T14:39:23.791Z,7.08
2023-03-29T14:41:50.147Z,7.08
2023-03-29T14:44:16.668Z,7.09
2023-03-29T14:46:43.039Z,7.09
2023-03-29T14:49:09.456Z,7.12
2023-03-29T14:51:36.839Z,7.12
2023-03-29T14:54:03.207Z,7.14
2023-03-29T14:56:29.546Z,7.12
2023-03-29T14:58:55.864Z,7.12
2023-03-29T15:01:22.292Z,7.12
2023-03-29T15:03:48.821Z,7.14
2023-03-29T15:06:15.223Z,7.15
2023-03-29T15:08:46.004Z,7.14
2023-03-29T15:11:20.649Z,7.14
2023-03-29T15:13:47.012Z,7.12
2023-03-29T15:16:13.615Z,7.15
2023-03-29T15:18:40.193Z,7.16
2023-03-29T15:21:06.859Z,7.14
2023-03-29T15:23:33.192Z,7.15
2023-03-29T15:25:59.713Z,7.16
2023-03-29T15:28:26.053Z,7.16
2023-03-29T15:31:04.597Z,7.16
2023-03-29T15:33:34.101Z,7.15
2023-03-29T15:36:00.960Z,7.15
2023-03-29T15:38:40.392Z,7.15
2023-03-29T15:41:10.286Z,7.19
2023-03-29T15:43:36.620Z,7.16
2023-03-29T15:46:03.313Z,7.16
2023-03-29T15:48:29.866Z,7.18
2023-03-29T15:50:57.649Z,7.18
2023-03-29T15:53:25.367Z,7.18
2023-03-29T15:55:51.701Z,7.19
2023-03-29T15:58:18.097Z,7.18
2023-03-29T16:00:44.536Z,7.19
2023-03-29T16:03:11.116Z,7.15
2023-03-29T16:05:37.543Z,7.19
2023-03-29T16:08:04.071Z,7.18
2023-03-29T16:10:30.436Z,7.19
2023-03-29T16:12:56.953Z,7.18
2023-03-29T16:15:23.285Z,7.16
2023-03-29T16:17:49.685Z,7.19
2023-03-29T16:20:16.099Z,7.19
2023-03-29T16:22:42.443Z,7.19
2023-03-29T16:25:08.803Z,7.18
2023-03-29T16:27:35.127Z,7.19
2023-03-29T16:30:01.490Z,7.21
2023-03-29T16:32:28.101Z,7.19
2023-03-29T16:34:54.615Z,7.19
2023-03-29T16:37:21.128Z,7.21
2023-03-29T16:39:47.493Z,7.19
2023-03-29T16:42:13.834Z,7.21
2023-03-29T16:44:40.203Z,7.21
2023-03-29T16:47:06.555Z,7.18
2023-03-29T16:49:32.886Z,7.21
2023-03-29T16:51:59.224Z,7.18
2023-03-29T16:54:25.578Z,7.22
2023-03-29T16:56:51.977Z,7.22
2023-03-29T16:59:18.344Z,7.21
2023-03-29T17:01:44.745Z,7.22
2023-03-29T17:04:11.205Z,7.22
2023-03-29T17:06:37.798Z,7.21
2023-03-29T17:09:04.161Z,7.19
2023-03-29T17:11:30.750Z,7.21
2023-03-29T17:13:57.160Z,7.21
2023-03-29T17:16:24.207Z,7.22
2023-03-29T17:18:50.613Z,7.21
2023-03-29T17:21:16.984Z,7.22
2023-03-29T17:23:43.353Z,7.21
2023-03-29T17:26:09.705Z,7.22
2023-03-29T17:28:36.293Z,7.22
2023-03-29T17:31:02.682Z,7.19
2023-03-29T17:33:29.103Z,7.21
2023-03-29T17:35:55.495Z,7.22
2023-03-29T17:38:21.858Z,7.21
2023-03-29T17:40:48.176Z,7.22
2023-03-29T17:43:14.517Z,7.21
2023-03-29T17:45:41.103Z,7.21
2023-03-29T17:48:07.483Z,7.19
2023-03-29T17:50:33.878Z,7.22
2023-03-29T17:53:00.226Z,7.21
2023-03-29T17:55:26.552Z,7.22
2023-03-29T17:57:52.890Z,7.19
2023-03-29T18:00:19.244Z,7.21
2023-03-29T18:02:45.941Z,7.21
2023-03-29T18:05:12.440Z,7.22
2023-03-29T18:07:38.785Z,7.21
2023-03-29T18:10:05.129Z,7.23
2023-03-29T18:12:31.480Z,7.21
2023-03-29T18:14:57.896Z,7.22
2023-03-29T18:17:24.285Z,7.22
2023-03-29T18:19:50.848Z,7.21
2023-03-29T18:22:17.172Z,7.22
2023-03-29T18:24:43.496Z,7.19
2023-03-29T18:27:09.852Z,7.19
2023-03-29T18:29:36.181Z,7.19
2023-03-29T18:32:02.709Z,7.23
2023-03-29T18:34:29.196Z,7.19
2023-03-29T18:36:55.777Z,7.21
2023-03-29T18:39:22.110Z,7.22
2023-03-29T18:41:48.436Z,7.16
2023-03-29T18:44:14.792Z,7.21
2023-03-29T18:46:41.200Z,7.22
2023-03-29T18:49:07.632Z,7.21
2023-03-29T18:51:33.968Z,7.19
2023-03-29T18:54:00.536Z,7.19
2023-03-29T18:56:26.898Z,7.19
2023-03-29T18:58:53.248Z,7.19
2023-03-29T19:01:19.621Z,7.19
2023-03-29T19:03:46.015Z,7.18
2023-03-29T19:06:12.372Z,7.19
2023-03-29T19:08:38.714Z,7.21
2023-03-29T19:11:05.081Z,7.22
2023-03-29T19:13:31.664Z,7.21
2023-03-29T19:15:58.050Z,7.19
2023-03-29T19:18:24.402Z,7.19
2023-03-29T19:20:50.760Z,7.22
2023-03-29T19:23:17.139Z,7.22
2023-03-29T19:25:43.481Z,7.22
2023-03-29T19:28:09.829Z,7.22
2023-03-29T19:30:36.177Z,7.21
2023-03-29T19:33:02.549Z,7.21
2023-03-29T19:35:28.937Z,7.22
2023-03-29T19:37:55.280Z,7.22
2023-03-29T19:40:21.829Z,7.21
2023-03-29T19:42:48.179Z,7.22
2023-03-29T19:45:14.522Z,7.22
2023-03-29T19:47:40.923Z,7.21
2023-03-29T19:50:07.328Z,7.22
2023-03-29T19:52:33.651Z,7.21
2023-03-29T19:55:00.005Z,7.22
2023-03-29T19:57:26.353Z,7.23
2023-03-29T19:59:52.735Z,7.22
2023-03-29T20:02:19.298Z,7.22
2023-03-29T20:04:45.641Z,7.22
2023-03-29T20:07:11.986Z,7.19
2023-03-29T20:09:38.334Z,7.23
2023-03-29T20:12:04.689Z,7.21
2023-03-29T20:14:31.223Z,7.22
2023-03-29T20:16:57.753Z,7.21
2023-03-29T20:19:24.162Z,7.23
2023-03-29T20:21:50.516Z,7.21
2023-03-29T20:24:16.886Z,7.23
2023-03-29T20:26:43.245Z,7.23
2023-03-29T20:29:09.859Z,7.22
2023-03-29T20:31:36.337Z,7.23
2023-03-29T20:34:02.712Z,7.22
2023-03-29T20:36:29.147Z,7.21
2023-03-29T20:38:55.556Z,7.23
2023-03-29T20:41:21.906Z,7.23
2023-03-29T20:43:48.259Z,7.21
2023-03-29T20:46:14.854Z,7.25
2023-03-29T20:48:41.397Z,7.22
2023-03-29T20:51:07.750Z,7.23
2023-03-29T20:53:34.126Z,7.23
2023-03-29T20:56:00.476Z,7.23
2023-03-29T20:58:26.817Z,7.25
2023-03-29T21:00:53.143Z,7.23
2023-03-29T21:03:19.791Z,7.21
2023-03-29T21:05:46.222Z,7.25
2023-03-29T21:08:12.551Z,7.23
2023-03-29T21:10:38.910Z,7.21
2023-03-29T21:13:05.229Z,7.23
2023-03-29T21:15:31.612Z,7.23
2023-03-29T21:17:58.107Z,7.23
2023-03-29T21:20:24.551Z,7.23
2023-03-29T21:22:50.889Z,7.22
2023-03-29T21:25:17.471Z,7.22
2023-03-29T21:27:43.814Z,7.23
2023-03-29T21:30:10.171Z,7.22
2023-03-29T21:32:36.551Z,7.21
2023-03-29T21:35:02.919Z,7.23
2023-03-29T21:37:29.486Z,7.21
2023-03-29T21:39:55.840Z,7.23
2023-03-29T21:42:22.192Z,7.22
2023-03-29T21:44:48.547Z,7.21
2023-03-29T21:47:14.895Z,7.21
2023-03-29T21:49:41.234Z,7.21
2023-03-29T21:52:07.784Z,7.21
2023-03-29T21:54:34.322Z,7.21
2023-03-29T21:57:00.720Z,7.23
2023-03-29T21:59:27.096Z,7.22
2023-03-29T22:01:53.528Z,7.22
2023-03-29T22:04:33.210Z,7.22
2023-03-29T22:07:02.735Z,7.22
2023-03-29T22:09:29.062Z,7.22
2023-03-29T22:11:55.389Z,7.21
2023-03-29T22:14:21.736Z,7.23
2023-03-29T22:16:48.136Z,7.22
2023-03-29T22:19:14.493Z,7.22
2023-03-29T22:21:40.849Z,7.21
2023-03-29T22:24:07.185Z,7.21
2023-03-29T22:26:33.567Z,7.22
2023-03-29T22:28:59.963Z,7.22
2023-03-29T22:31:26.315Z,7.22
2023-03-29T22:33:52.927Z,7.19
2023-03-29T22:36:19.294Z,7.22
2023-03-29T22:38:45.639Z,7.21
2023-03-29T22:41:11.999Z,7.22
2023-03-29T22:43:38.362Z,7.19
2023-03-29T22:46:04.765Z,7.21
2023-03-29T22:48:31.171Z,7.19
2023-03-29T22:50:57.536Z,7.22
2023-03-29T22:53:23.889Z,7.19
2023-03-29T22:55:50.237Z,7.21
2023-03-29T22:58:16.836Z,7.23
2023-03-29T23:00:43.204Z,7.23
2023-03-29T23:03:09.597Z,7.21
2023-03-29T23:05:35.940Z,7.23
2023-03-29T23:08:02.288Z,7.22
2023-03-29T23:10:28.647Z,7.19
2023-03-29T23:12:55.010Z,7.22
2023-03-29T23:15:21.557Z,7.22
2023-03-29T23:17:47.942Z,7.22
2023-03-29T23:20:14.333Z,7.22
2023-03-29T23:22:40.674Z,7.22
2023-03-29T23:25:07.043Z,7.22
2023-03-29T23:27:33.393Z,7.21
2023-03-29T23:29:59.731Z,7.22
2023-03-29T23:32:26.107Z,7.22
2023-03-29T23:34:52.463Z,7.22
2023-03-29T23:37:18.822Z,7.21
2023-03-29T23:39:45.176Z,7.22
2023-03-29T23:42:11.506Z,7.22
2023-03-29T23:44:37.839Z,7.21
2023-03-29T23:47:04.280Z,7.23
2023-03-29T23:49:30.730Z,7.19
2023-03-29T23:51:57.108Z,7.22
2023-03-29T23:54:23.453Z,7.19
2023-03-29T23:56:50.083Z,7.23
2023-03-29T23:59:16.448Z,7.21
